createdAt,value
2018-12-27T05:12:25.941Z,9.40
2018-12-27T05:22:54.165Z,9.13
2018-12-27T05:25:44.945Z,8.40
2018-12-27T05:29:01.966Z,8.70
2018-12-27T05:31:54.564Z,9.13
2018-12-27T05:35:06.609Z,9.27
2018-12-27T05:41:09.965Z,9.07
2018-12-27T05:43:47.785Z,8.50
2018-12-27T05:46:26.571Z,8.30
2018-12-27T05:52:14.963Z,10.77
2018-12-27T05:55:06.842Z,9.77
2018-12-27T06:01:22.057Z,10.83
2018-12-27T06:04:33.692Z,9.73
2018-12-27T06:07:40.743Z,8.43
2018-12-27T06:10:30.262Z,8.50
2018-12-27T06:17:01.545Z,8.60
2018-12-27T06:20:10.090Z,7.90
2018-12-27T06:22:59.603Z,7.40
2018-12-27T06:26:12.381Z,7.93
2018-12-27T06:32:17.543Z,7.83
2018-12-27T06:35:24.027Z,8.90
2018-12-27T06:38:14.769Z,8.20
2018-12-27T06:41:59.514Z,6.40
2018-12-27T06:44:51.182Z,8.00
2018-12-27T06:47:57.816Z,7.87
2018-12-27T07:14:21.984Z,8.90
2018-12-27T07:17:11.755Z,9.23
2018-12-27T07:20:21.671Z,9.77
2018-12-27T07:26:02.015Z,8.87
2018-12-27T07:28:42.629Z,9.33
2018-12-27T07:31:16.498Z,9.33
2018-12-27T07:33:50.700Z,10.20
2018-12-27T07:36:25.582Z,10.27
2018-12-27T07:38:59.587Z,9.70
2018-12-27T07:44:35.066Z,8.23
2018-12-27T07:47:10.312Z,7.50
2018-12-27T07:49:40.597Z,7.80
2018-12-27T07:52:18.762Z,7.80
2018-12-27T07:54:49.812Z,6.67
2018-12-27T07:57:27.163Z,7.80
2018-12-27T07:59:57.435Z,8.03
2018-12-27T08:05:26.890Z,7.63
2018-12-27T08:08:02.808Z,7.67
2018-12-27T08:10:33.111Z,7.73
2018-12-27T08:13:09.112Z,6.83
2018-12-27T16:46:57.303Z,12.83
2018-12-27T16:50:14.114Z,12.93
2018-12-27T16:53:20.595Z,14.23
2018-12-27T16:56:29.659Z,15.27
2018-12-27T16:59:22.701Z,13.83
2018-12-27T17:12:09.086Z,15.33
2018-12-27T17:15:16.324Z,15.90
2018-12-27T17:18:49.300Z,17.63
2018-12-27T17:25:11.212Z,19.73
2018-12-27T17:28:00.699Z,17.90
2018-12-27T17:37:49.392Z,17.83
2018-12-27T17:40:55.599Z,19.13
2018-12-27T17:43:45.516Z,20.20
2018-12-27T17:46:44.030Z,16.87
2018-12-27T17:50:00.683Z,17.90
2018-12-27T17:53:24.350Z,17.80
2018-12-27T17:56:13.858Z,20.70
2018-12-27T17:59:38.765Z,17.93
2018-12-27T18:08:59.162Z,15.97
2018-12-27T18:12:05.125Z,16.03
2018-12-27T18:14:59.102Z,17.00
2018-12-27T18:18:08.055Z,16.13
2018-12-27T18:23:56.887Z,13.53
2018-12-27T18:27:04.579Z,14.43
2018-12-27T18:29:54.635Z,13.43
2018-12-27T18:33:00.780Z,16.60
2018-12-27T18:36:08.943Z,19.10
2018-12-27T18:39:16.362Z,24.37
2018-12-27T18:45:19.587Z,20.40
2018-12-27T18:48:26.067Z,22.63
2018-12-27T18:51:17.235Z,29.70
2018-12-27T18:54:28.978Z,20.27
2018-12-27T18:57:35.285Z,19.10
2018-12-27T19:03:51.815Z,17.50
2018-12-27T19:07:01.378Z,16.97
2018-12-27T19:09:51.836Z,23.50
2018-12-27T19:13:15.490Z,24.00
2018-12-27T19:16:06.567Z,23.80
2018-12-27T19:19:30.226Z,23.27
2018-12-27T19:25:26.138Z,23.60
2018-12-27T19:28:35.163Z,27.47
2018-12-27T19:31:26.213Z,18.13
2018-12-27T19:37:52.144Z,19.43
2018-12-27T21:10:33.221Z,16.33
2018-12-27T21:26:54.688Z,19.87
2018-12-27T21:30:07.642Z,20.80
2018-12-27T21:32:58.866Z,19.53
2018-12-27T21:36:24.309Z,19.20
2018-12-27T21:46:43.283Z,19.43
2018-12-27T21:49:54.466Z,18.50
2018-12-27T21:53:21.993Z,19.37
2018-12-27T21:56:51.123Z,19.03
2018-12-27T21:59:58.169Z,18.97
2018-12-27T22:06:28.825Z,20.40
2018-12-27T22:23:28.367Z,20.97
2018-12-27T22:26:23.461Z,21.30
2018-12-27T22:29:12.861Z,19.87
2018-12-27T22:32:19.649Z,18.83
2018-12-27T22:38:52.610Z,21.50
2018-12-27T22:42:03.521Z,18.57
2018-12-27T22:44:55.162Z,18.57
2018-12-27T22:58:25.657Z,18.90
2018-12-27T23:11:38.284Z,21.20
2018-12-27T23:21:33.237Z,23.47
2018-12-27T23:27:46.407Z,21.80
